sensor_id;sensor_type;location;lat;lon;timestamp;P1;durP1;ratioP1;P2;durP2;ratioP2
45049;SDS011;61798;48.048;-1.928;2023-02-28T00:01:32;28.75;;;10.30;;
45049;SDS011;61798;48.048;-1.928;2023-02-28T00:03:38;21.15;;;10.30;;
45049;SDS011;61798;48.048;-1.928;2023-02-28T00:05:44;18.05;;;9.88;;
45049;SDS011;61798;48.048;-1.928;2023-02-28T00:07:50;20.55;;;9.90;;
45049;SDS011;61798;48.048;-1.928;2023-02-28T00:09:57;19.13;;;10.43;;
45049;SDS011;61798;48.048;-1.928;2023-02-28T00:12:03;18.13;;;8.32;;
45049;SDS011;61798;48.048;-1.928;2023-02-28T00:14:15;18.90;;;9.48;;
45049;SDS011;61798;48.048;-1.928;2023-02-28T00:16:21;18.83;;;8.90;;
45049;SDS011;61798;48.048;-1.928;2023-02-28T00:18:27;17.75;;;8.60;;
45049;SDS011;61798;48.048;-1.928;2023-02-28T00:20:33;17.05;;;8.95;;
45049;SDS011;61798;48.048;-1.928;2023-02-28T00:22:47;17.17;;;7.75;;
45049;SDS011;61798;48.048;-1.928;2023-02-28T00:24:54;17.50;;;8.65;;
45049;SDS011;61798;48.048;-1.928;2023-02-28T00:27:00;15.18;;;8.13;;
45049;SDS011;61798;48.048;-1.928;2023-02-28T00:29:06;16.17;;;8.00;;
45049;SDS011;61798;48.048;-1.928;2023-02-28T00:31:12;19.02;;;8.65;;
45049;SDS011;61798;48.048;-1.928;2023-02-28T00:33:18;17.27;;;8.07;;
45049;SDS011;61798;48.048;-1.928;2023-02-28T00:35:24;17.15;;;8.52;;
45049;SDS011;61798;48.048;-1.928;2023-02-28T00:37:30;17.42;;;8.52;;
45049;SDS011;61798;48.048;-1.928;2023-02-28T00:39:37;16.98;;;8.23;;
45049;SDS011;61798;48.048;-1.928;2023-02-28T00:41:43;16.58;;;8.18;;
45049;SDS011;61798;48.048;-1.928;2023-02-28T00:43:49;17.77;;;8.75;;
45049;SDS011;61798;48.048;-1.928;2023-02-28T00:45:55;15.48;;;8.38;;
45049;SDS011;61798;48.048;-1.928;2023-02-28T00:48:02;16.60;;;8.00;;
45049;SDS011;61798;48.048;-1.928;2023-02-28T00:50:08;19.67;;;7.22;;
45049;SDS011;61798;48.048;-1.928;2023-02-28T00:52:15;13.50;;;7.28;;
45049;SDS011;61798;48.048;-1.928;2023-02-28T00:54:21;13.18;;;6.90;;
45049;SDS011;61798;48.048;-1.928;2023-02-28T00:56:28;11.98;;;6.53;;
45049;SDS011;61798;48.048;-1.928;2023-02-28T00:58:34;15.30;;;7.32;;
45049;SDS011;61798;48.048;-1.928;2023-02-28T01:00:40;14.48;;;6.43;;
45049;SDS011;61798;48.048;-1.928;2023-02-28T01:02:46;13.07;;;6.68;;
45049;SDS011;61798;48.048;-1.928;2023-02-28T01:04:52;11.10;;;6.05;;
45049;SDS011;61798;48.048;-1.928;2023-02-28T01:06:58;10.65;;;6.50;;
45049;SDS011;61798;48.048;-1.928;2023-02-28T01:09:04;15.02;;;6.78;;
45049;SDS011;61798;48.048;-1.928;2023-02-28T01:11:12;11.77;;;6.53;;
45049;SDS011;61798;48.048;-1.928;2023-02-28T01:13:20;13.50;;;6.57;;
45049;SDS011;61798;48.048;-1.928;2023-02-28T01:15:26;15.00;;;6.32;;
45049;SDS011;61798;48.048;-1.928;2023-02-28T01:17:31;11.05;;;6.63;;
45049;SDS011;61798;48.048;-1.928;2023-02-28T01:19:37;13.60;;;6.38;;
45049;SDS011;61798;48.048;-1.928;2023-02-28T01:21:43;14.05;;;6.28;;
45049;SDS011;61798;48.048;-1.928;2023-02-28T01:23:50;15.77;;;6.18;;
45049;SDS011;61798;48.048;-1.928;2023-02-28T01:25:56;83.10;;;8.95;;
45049;SDS011;61798;48.048;-1.928;2023-02-28T01:28:02;13.40;;;6.82;;
45049;SDS011;61798;48.048;-1.928;2023-02-28T01:30:09;15.35;;;6.55;;
45049;SDS011;61798;48.048;-1.928;2023-02-28T01:32:15;13.43;;;6.07;;
45049;SDS011;61798;48.048;-1.928;2023-02-28T01:34:21;13.27;;;6.55;;
45049;SDS011;61798;48.048;-1.928;2023-02-28T01:36:27;14.20;;;5.90;;
45049;SDS011;61798;48.048;-1.928;2023-02-28T01:38:33;13.68;;;6.85;;
45049;SDS011;61798;48.048;-1.928;2023-02-28T01:40:39;9.82;;;6.50;;
45049;SDS011;61798;48.048;-1.928;2023-02-28T01:42:45;14.85;;;6.85;;
45049;SDS011;61798;48.048;-1.928;2023-02-28T01:44:55;14.23;;;7.22;;
45049;SDS011;61798;48.048;-1.928;2023-02-28T01:47:05;12.30;;;6.20;;
45049;SDS011;61798;48.048;-1.928;2023-02-28T01:49:12;11.52;;;7.03;;
45049;SDS011;61798;48.048;-1.928;2023-02-28T01:51:24;12.93;;;6.78;;
45049;SDS011;61798;48.048;-1.928;2023-02-28T01:53:43;18.20;;;6.70;;
45049;SDS011;61798;48.048;-1.928;2023-02-28T01:55:54;11.95;;;6.90;;
45049;SDS011;61798;48.048;-1.928;2023-02-28T01:58:02;15.85;;;6.53;;
45049;SDS011;61798;48.048;-1.928;2023-02-28T02:00:13;13.05;;;6.90;;
45049;SDS011;61798;48.048;-1.928;2023-02-28T02:02:21;11.05;;;6.35;;
45049;SDS011;61798;48.048;-1.928;2023-02-28T02:04:32;16.38;;;7.28;;
45049;SDS011;61798;48.048;-1.928;2023-02-28T02:06:44;13.15;;;6.45;;
45049;SDS011;61798;48.048;-1.928;2023-02-28T02:08:53;11.57;;;6.78;;
45049;SDS011;61798;48.048;-1.928;2023-02-28T02:10:59;13.98;;;6.93;;
45049;SDS011;61798;48.048;-1.928;2023-02-28T02:16:05;15.95;;;7.40;;
45049;SDS011;61798;48.048;-1.928;2023-02-28T02:18:32;12.45;;;7.30;;
45049;SDS011;61798;48.048;-1.928;2023-02-28T02:28:22;12.02;;;7.13;;
45049;SDS011;61798;48.048;-1.928;2023-02-28T02:35:43;16.67;;;7.75;;
45049;SDS011;61798;48.048;-1.928;2023-02-28T02:40:47;15.30;;;7.10;;
45049;SDS011;61798;48.048;-1.928;2023-02-28T02:45:46;10.85;;;6.97;;
45049;SDS011;61798;48.048;-1.928;2023-02-28T02:47:58;12.57;;;7.25;;
45049;SDS011;61798;48.048;-1.928;2023-02-28T02:50:06;13.65;;;7.25;;
45049;SDS011;61798;48.048;-1.928;2023-02-28T02:52:18;12.57;;;7.57;;
45049;SDS011;61798;48.048;-1.928;2023-02-28T02:54:30;12.13;;;7.13;;
45049;SDS011;61798;48.048;-1.928;2023-02-28T02:56:39;15.27;;;7.93;;
45049;SDS011;61798;48.048;-1.928;2023-02-28T02:58:49;14.18;;;7.75;;
45049;SDS011;61798;48.048;-1.928;2023-02-28T03:00:58;12.18;;;7.30;;
45049;SDS011;61798;48.048;-1.928;2023-02-28T03:03:07;16.98;;;7.82;;
45049;SDS011;61798;48.048;-1.928;2023-02-28T03:05:17;11.60;;;7.80;;
45049;SDS011;61798;48.048;-1.928;2023-02-28T03:07:28;17.23;;;8.23;;
45049;SDS011;61798;48.048;-1.928;2023-02-28T03:09:34;12.52;;;7.63;;
45049;SDS011;61798;48.048;-1.928;2023-02-28T03:11:44;14.30;;;8.13;;
45049;SDS011;61798;48.048;-1.928;2023-02-28T03:16:36;11.88;;;7.45;;
45049;SDS011;61798;48.048;-1.928;2023-02-28T03:21:08;13.43;;;8.30;;
45049;SDS011;61798;48.048;-1.928;2023-02-28T03:23:42;12.23;;;7.88;;
45049;SDS011;61798;48.048;-1.928;2023-02-28T03:26:06;14.00;;;7.75;;
45049;SDS011;61798;48.048;-1.928;2023-02-28T03:28:27;16.38;;;8.10;;
45049;SDS011;61798;48.048;-1.928;2023-02-28T03:31:01;13.30;;;8.63;;
45049;SDS011;61798;48.048;-1.928;2023-02-28T03:33:17;15.05;;;8.80;;
45049;SDS011;61798;48.048;-1.928;2023-02-28T03:36:02;20.75;;;8.82;;
45049;SDS011;61798;48.048;-1.928;2023-02-28T03:40:25;18.90;;;8.35;;
45049;SDS011;61798;48.048;-1.928;2023-02-28T03:42:37;13.38;;;7.82;;
45049;SDS011;61798;48.048;-1.928;2023-02-28T03:44:45;12.23;;;8.95;;
45049;SDS011;61798;48.048;-1.928;2023-02-28T03:47:08;13.52;;;8.60;;
45049;SDS011;61798;48.048;-1.928;2023-02-28T03:49:25;17.17;;;9.05;;
45049;SDS011;61798;48.048;-1.928;2023-02-28T03:51:36;14.90;;;8.50;;
45049;SDS011;61798;48.048;-1.928;2023-02-28T03:53:47;15.75;;;8.48;;
45049;SDS011;61798;48.048;-1.928;2023-02-28T03:55:59;13.85;;;8.88;;
45049;SDS011;61798;48.048;-1.928;2023-02-28T03:58:31;15.05;;;8.93;;
45049;SDS011;61798;48.048;-1.928;2023-02-28T04:01:04;12.95;;;8.77;;
45049;SDS011;61798;48.048;-1.928;2023-02-28T04:03:14;14.57;;;9.20;;
45049;SDS011;61798;48.048;-1.928;2023-02-28T04:05:21;13.60;;;8.65;;
45049;SDS011;61798;48.048;-1.928;2023-02-28T04:07:31;16.85;;;8.35;;
45049;SDS011;61798;48.048;-1.928;2023-02-28T04:09:38;15.32;;;9.15;;
45049;SDS011;61798;48.048;-1.928;2023-02-28T04:11:50;14.27;;;9.15;;
45049;SDS011;61798;48.048;-1.928;2023-02-28T04:13:57;17.20;;;9.05;;
45049;SDS011;61798;48.048;-1.928;2023-02-28T04:16:06;17.23;;;9.45;;
45049;SDS011;61798;48.048;-1.928;2023-02-28T04:18:17;13.00;;;8.52;;
45049;SDS011;61798;48.048;-1.928;2023-02-28T04:20:23;12.82;;;8.80;;
45049;SDS011;61798;48.048;-1.928;2023-02-28T04:22:29;17.77;;;9.07;;
45049;SDS011;61798;48.048;-1.928;2023-02-28T04:24:35;12.65;;;9.15;;
45049;SDS011;61798;48.048;-1.928;2023-02-28T04:26:42;13.23;;;9.43;;
45049;SDS011;61798;48.048;-1.928;2023-02-28T04:28:50;13.80;;;9.32;;
45049;SDS011;61798;48.048;-1.928;2023-02-28T04:30:57;14.93;;;9.32;;
45049;SDS011;61798;48.048;-1.928;2023-02-28T04:33:09;13.80;;;9.90;;
45049;SDS011;61798;48.048;-1.928;2023-02-28T04:35:15;17.30;;;9.88;;
45049;SDS011;61798;48.048;-1.928;2023-02-28T04:37:21;12.60;;;9.50;;
45049;SDS011;61798;48.048;-1.928;2023-02-28T04:39:34;24.08;;;10.88;;
45049;SDS011;61798;48.048;-1.928;2023-02-28T04:41:42;16.33;;;9.82;;
45049;SDS011;61798;48.048;-1.928;2023-02-28T04:43:48;17.33;;;9.57;;
45049;SDS011;61798;48.048;-1.928;2023-02-28T04:45:55;16.48;;;10.00;;
45049;SDS011;61798;48.048;-1.928;2023-02-28T04:48:02;21.13;;;10.52;;
45049;SDS011;61798;48.048;-1.928;2023-02-28T04:50:08;16.10;;;10.30;;
45049;SDS011;61798;48.048;-1.928;2023-02-28T04:52:15;16.13;;;10.48;;
45049;SDS011;61798;48.048;-1.928;2023-02-28T04:54:21;16.67;;;9.85;;
45049;SDS011;61798;48.048;-1.928;2023-02-28T04:56:27;17.05;;;10.85;;
45049;SDS011;61798;48.048;-1.928;2023-02-28T04:58:33;16.50;;;10.95;;
45049;SDS011;61798;48.048;-1.928;2023-02-28T05:00:40;19.00;;;10.82;;
45049;SDS011;61798;48.048;-1.928;2023-02-28T05:02:46;20.80;;;11.70;;
45049;SDS011;61798;48.048;-1.928;2023-02-28T05:04:52;23.13;;;12.15;;
45049;SDS011;61798;48.048;-1.928;2023-02-28T05:06:58;20.88;;;11.55;;
45049;SDS011;61798;48.048;-1.928;2023-02-28T05:09:05;16.98;;;11.55;;
45049;SDS011;61798;48.048;-1.928;2023-02-28T05:11:18;19.23;;;10.68;;
45049;SDS011;61798;48.048;-1.928;2023-02-28T05:13:24;21.90;;;11.52;;
45049;SDS011;61798;48.048;-1.928;2023-02-28T05:15:32;14.73;;;10.75;;
45049;SDS011;61798;48.048;-1.928;2023-02-28T05:17:39;19.38;;;11.10;;
45049;SDS011;61798;48.048;-1.928;2023-02-28T05:19:47;19.27;;;11.18;;
45049;SDS011;61798;48.048;-1.928;2023-02-28T05:21:54;14.95;;;10.50;;
45049;SDS011;61798;48.048;-1.928;2023-02-28T05:24:03;20.50;;;11.20;;
45049;SDS011;61798;48.048;-1.928;2023-02-28T05:26:14;15.88;;;10.60;;
45049;SDS011;61798;48.048;-1.928;2023-02-28T05:28:20;17.58;;;10.23;;
45049;SDS011;61798;48.048;-1.928;2023-02-28T05:30:26;19.55;;;10.90;;
45049;SDS011;61798;48.048;-1.928;2023-02-28T05:32:32;19.55;;;11.55;;
45049;SDS011;61798;48.048;-1.928;2023-02-28T05:34:39;22.60;;;12.43;;
45049;SDS011;61798;48.048;-1.928;2023-02-28T05:36:45;17.25;;;11.73;;
45049;SDS011;61798;48.048;-1.928;2023-02-28T05:38:51;18.75;;;11.32;;
45049;SDS011;61798;48.048;-1.928;2023-02-28T05:40:57;18.27;;;12.20;;
45049;SDS011;61798;48.048;-1.928;2023-02-28T05:43:04;20.95;;;11.93;;
45049;SDS011;61798;48.048;-1.928;2023-02-28T05:45:10;22.48;;;12.25;;
45049;SDS011;61798;48.048;-1.928;2023-02-28T05:47:16;23.05;;;13.10;;
45049;SDS011;61798;48.048;-1.928;2023-02-28T05:49:22;19.17;;;11.93;;
45049;SDS011;61798;48.048;-1.928;2023-02-28T05:51:28;22.38;;;12.98;;
45049;SDS011;61798;48.048;-1.928;2023-02-28T05:53:35;19.85;;;12.93;;
45049;SDS011;61798;48.048;-1.928;2023-02-28T05:55:41;19.33;;;12.32;;
45049;SDS011;61798;48.048;-1.928;2023-02-28T05:57:47;22.75;;;12.32;;
45049;SDS011;61798;48.048;-1.928;2023-02-28T05:59:53;22.10;;;12.35;;
45049;SDS011;61798;48.048;-1.928;2023-02-28T06:01:59;17.83;;;12.27;;
45049;SDS011;61798;48.048;-1.928;2023-02-28T06:04:08;17.38;;;12.35;;
45049;SDS011;61798;48.048;-1.928;2023-02-28T06:06:22;18.27;;;11.68;;
45049;SDS011;61798;48.048;-1.928;2023-02-28T06:08:39;21.05;;;13.18;;
45049;SDS011;61798;48.048;-1.928;2023-02-28T06:10:47;17.98;;;12.13;;
45049;SDS011;61798;48.048;-1.928;2023-02-28T06:13:03;18.30;;;12.60;;
45049;SDS011;61798;48.048;-1.928;2023-02-28T06:15:20;22.58;;;12.85;;
45049;SDS011;61798;48.048;-1.928;2023-02-28T06:17:28;19.73;;;12.82;;
45049;SDS011;61798;48.048;-1.928;2023-02-28T06:19:42;19.52;;;12.93;;
45049;SDS011;61798;48.048;-1.928;2023-02-28T06:21:54;21.55;;;13.27;;
45049;SDS011;61798;48.048;-1.928;2023-02-28T06:24:01;22.27;;;13.40;;
45049;SDS011;61798;48.048;-1.928;2023-02-28T06:26:12;24.20;;;12.57;;
45049;SDS011;61798;48.048;-1.928;2023-02-28T06:28:18;20.58;;;13.85;;
45049;SDS011;61798;48.048;-1.928;2023-02-28T06:30:26;18.05;;;13.48;;
45049;SDS011;61798;48.048;-1.928;2023-02-28T06:32:35;22.70;;;13.63;;
45049;SDS011;61798;48.048;-1.928;2023-02-28T06:34:41;23.13;;;14.05;;
45049;SDS011;61798;48.048;-1.928;2023-02-28T06:36:49;21.70;;;13.68;;
45049;SDS011;61798;48.048;-1.928;2023-02-28T06:38:56;23.90;;;13.98;;
45049;SDS011;61798;48.048;-1.928;2023-02-28T06:41:02;22.63;;;14.18;;
45049;SDS011;61798;48.048;-1.928;2023-02-28T06:43:09;19.15;;;13.68;;
45049;SDS011;61798;48.048;-1.928;2023-02-28T06:45:18;24.63;;;15.05;;
45049;SDS011;61798;48.048;-1.928;2023-02-28T06:47:25;21.45;;;14.65;;
45049;SDS011;61798;48.048;-1.928;2023-02-28T06:49:32;22.63;;;15.02;;
45049;SDS011;61798;48.048;-1.928;2023-02-28T06:51:40;23.23;;;16.15;;
45049;SDS011;61798;48.048;-1.928;2023-02-28T06:53:50;21.77;;;15.00;;
45049;SDS011;61798;48.048;-1.928;2023-02-28T06:55:57;25.00;;;15.23;;
45049;SDS011;61798;48.048;-1.928;2023-02-28T06:58:04;22.50;;;15.70;;
45049;SDS011;61798;48.048;-1.928;2023-02-28T07:00:20;28.48;;;16.33;;
45049;SDS011;61798;48.048;-1.928;2023-02-28T07:02:27;25.13;;;16.13;;
45049;SDS011;61798;48.048;-1.928;2023-02-28T07:04:33;26.75;;;16.70;;
45049;SDS011;61798;48.048;-1.928;2023-02-28T07:06:39;27.27;;;16.95;;
45049;SDS011;61798;48.048;-1.928;2023-02-28T07:08:45;25.42;;;17.20;;
45049;SDS011;61798;48.048;-1.928;2023-02-28T07:10:52;27.55;;;16.95;;
45049;SDS011;61798;48.048;-1.928;2023-02-28T07:12:59;25.85;;;16.35;;
45049;SDS011;61798;48.048;-1.928;2023-02-28T07:15:06;24.88;;;16.52;;
45049;SDS011;61798;48.048;-1.928;2023-02-28T07:17:13;24.67;;;16.30;;
45049;SDS011;61798;48.048;-1.928;2023-02-28T07:19:19;30.00;;;17.08;;
45049;SDS011;61798;48.048;-1.928;2023-02-28T07:21:25;23.25;;;15.95;;
45049;SDS011;61798;48.048;-1.928;2023-02-28T07:23:31;27.40;;;16.45;;
45049;SDS011;61798;48.048;-1.928;2023-02-28T07:25:38;22.73;;;15.80;;
45049;SDS011;61798;48.048;-1.928;2023-02-28T07:27:44;24.80;;;15.98;;
45049;SDS011;61798;48.048;-1.928;2023-02-28T07:29:51;25.25;;;17.40;;
45049;SDS011;61798;48.048;-1.928;2023-02-28T07:31:58;23.30;;;15.35;;
45049;SDS011;61798;48.048;-1.928;2023-02-28T07:34:04;28.52;;;16.88;;
45049;SDS011;61798;48.048;-1.928;2023-02-28T07:36:11;22.88;;;16.27;;
45049;SDS011;61798;48.048;-1.928;2023-02-28T07:38:20;25.73;;;17.27;;
45049;SDS011;61798;48.048;-1.928;2023-02-28T07:40:26;26.92;;;16.83;;
45049;SDS011;61798;48.048;-1.928;2023-02-28T07:42:32;25.52;;;16.08;;
45049;SDS011;61798;48.048;-1.928;2023-02-28T07:44:39;26.92;;;16.58;;
45049;SDS011;61798;48.048;-1.928;2023-02-28T07:46:46;31.58;;;17.52;;
45049;SDS011;61798;48.048;-1.928;2023-02-28T07:48:52;26.83;;;17.65;;
45049;SDS011;61798;48.048;-1.928;2023-02-28T07:51:00;27.40;;;17.52;;
45049;SDS011;61798;48.048;-1.928;2023-02-28T07:53:06;29.42;;;17.65;;
45049;SDS011;61798;48.048;-1.928;2023-02-28T07:55:14;28.90;;;17.23;;
45049;SDS011;61798;48.048;-1.928;2023-02-28T07:57:24;28.08;;;17.00;;
45049;SDS011;61798;48.048;-1.928;2023-02-28T07:59:31;27.83;;;17.27;;
45049;SDS011;61798;48.048;-1.928;2023-02-28T08:01:38;31.63;;;18.35;;
45049;SDS011;61798;48.048;-1.928;2023-02-28T08:03:50;34.78;;;19.10;;
45049;SDS011;61798;48.048;-1.928;2023-02-28T08:05:58;28.13;;;17.83;;
45049;SDS011;61798;48.048;-1.928;2023-02-28T08:08:05;33.85;;;19.58;;
45049;SDS011;61798;48.048;-1.928;2023-02-28T08:10:12;29.67;;;18.75;;
45049;SDS011;61798;48.048;-1.928;2023-02-28T08:12:26;29.02;;;18.55;;
45049;SDS011;61798;48.048;-1.928;2023-02-28T08:14:33;26.45;;;18.40;;
45049;SDS011;61798;48.048;-1.928;2023-02-28T08:16:40;29.38;;;17.20;;
45049;SDS011;61798;48.048;-1.928;2023-02-28T08:18:49;29.50;;;18.75;;
45049;SDS011;61798;48.048;-1.928;2023-02-28T08:20:55;29.02;;;18.40;;
45049;SDS011;61798;48.048;-1.928;2023-02-28T08:23:17;33.25;;;18.77;;
45049;SDS011;61798;48.048;-1.928;2023-02-28T08:25:25;28.20;;;17.50;;
45049;SDS011;61798;48.048;-1.928;2023-02-28T08:27:32;31.80;;;18.73;;
45049;SDS011;61798;48.048;-1.928;2023-02-28T08:29:38;32.22;;;18.60;;
45049;SDS011;61798;48.048;-1.928;2023-02-28T08:31:44;25.95;;;17.00;;
45049;SDS011;61798;48.048;-1.928;2023-02-28T08:33:50;29.88;;;18.55;;
45049;SDS011;61798;48.048;-1.928;2023-02-28T08:35:59;31.10;;;19.27;;
45049;SDS011;61798;48.048;-1.928;2023-02-28T08:38:05;29.95;;;18.73;;
45049;SDS011;61798;48.048;-1.928;2023-02-28T08:40:12;28.52;;;18.63;;
45049;SDS011;61798;48.048;-1.928;2023-02-28T08:42:23;33.00;;;19.30;;
45049;SDS011;61798;48.048;-1.928;2023-02-28T08:44:30;29.20;;;18.42;;
45049;SDS011;61798;48.048;-1.928;2023-02-28T08:46:36;33.03;;;19.48;;
45049;SDS011;61798;48.048;-1.928;2023-02-28T08:48:42;30.88;;;19.67;;
45049;SDS011;61798;48.048;-1.928;2023-02-28T08:50:58;31.42;;;20.73;;
45049;SDS011;61798;48.048;-1.928;2023-02-28T08:53:06;31.75;;;19.67;;
45049;SDS011;61798;48.048;-1.928;2023-02-28T08:55:12;28.70;;;18.83;;
45049;SDS011;61798;48.048;-1.928;2023-02-28T08:57:18;33.97;;;19.73;;
45049;SDS011;61798;48.048;-1.928;2023-02-28T08:59:24;32.30;;;19.83;;
45049;SDS011;61798;48.048;-1.928;2023-02-28T09:01:30;29.67;;;18.45;;
45049;SDS011;61798;48.048;-1.928;2023-02-28T09:03:37;30.15;;;19.67;;
45049;SDS011;61798;48.048;-1.928;2023-02-28T09:05:57;28.98;;;18.60;;
45049;SDS011;61798;48.048;-1.928;2023-02-28T09:08:04;30.95;;;20.35;;
45049;SDS011;61798;48.048;-1.928;2023-02-28T09:10:10;31.63;;;19.17;;
45049;SDS011;61798;48.048;-1.928;2023-02-28T09:12:16;29.58;;;19.10;;
45049;SDS011;61798;48.048;-1.928;2023-02-28T09:14:22;31.27;;;19.23;;
45049;SDS011;61798;48.048;-1.928;2023-02-28T09:16:29;36.25;;;19.75;;
45049;SDS011;61798;48.048;-1.928;2023-02-28T09:18:37;34.38;;;20.23;;
45049;SDS011;61798;48.048;-1.928;2023-02-28T09:20:43;36.05;;;19.20;;
45049;SDS011;61798;48.048;-1.928;2023-02-28T09:22:50;28.30;;;18.23;;
45049;SDS011;61798;48.048;-1.928;2023-02-28T09:24:55;35.42;;;18.88;;
45049;SDS011;61798;48.048;-1.928;2023-02-28T09:27:01;29.85;;;18.50;;
45049;SDS011;61798;48.048;-1.928;2023-02-28T09:29:07;29.73;;;18.27;;
45049;SDS011;61798;48.048;-1.928;2023-02-28T09:31:15;33.00;;;19.20;;
45049;SDS011;61798;48.048;-1.928;2023-02-28T09:33:26;27.70;;;18.55;;
45049;SDS011;61798;48.048;-1.928;2023-02-28T09:35:32;31.30;;;19.38;;
45049;SDS011;61798;48.048;-1.928;2023-02-28T09:37:38;28.58;;;19.05;;
45049;SDS011;61798;48.048;-1.928;2023-02-28T09:39:44;24.65;;;17.67;;
45049;SDS011;61798;48.048;-1.928;2023-02-28T09:41:51;26.33;;;17.73;;
45049;SDS011;61798;48.048;-1.928;2023-02-28T09:43:59;31.85;;;17.92;;
45049;SDS011;61798;48.048;-1.928;2023-02-28T09:48:58;33.28;;;20.30;;
45049;SDS011;61798;48.048;-1.928;2023-02-28T09:51:12;29.08;;;16.50;;
45049;SDS011;61798;48.048;-1.928;2023-02-28T09:53:33;26.00;;;15.77;;
45049;SDS011;61798;48.048;-1.928;2023-02-28T09:55:45;22.02;;;12.82;;
45049;SDS011;61798;48.048;-1.928;2023-02-28T09:57:55;20.90;;;14.23;;
45049;SDS011;61798;48.048;-1.928;2023-02-28T10:00:18;21.52;;;13.52;;
45049;SDS011;61798;48.048;-1.928;2023-02-28T10:04:47;15.90;;;11.48;;
45049;SDS011;61798;48.048;-1.928;2023-02-28T10:07:01;22.67;;;12.65;;
45049;SDS011;61798;48.048;-1.928;2023-02-28T10:09:24;19.67;;;13.82;;
45049;SDS011;61798;48.048;-1.928;2023-02-28T10:11:33;18.17;;;12.05;;
45049;SDS011;61798;48.048;-1.928;2023-02-28T10:13:52;37.35;;;21.00;;
45049;SDS011;61798;48.048;-1.928;2023-02-28T10:16:14;29.98;;;16.70;;
45049;SDS011;61798;48.048;-1.928;2023-02-28T10:18:47;18.27;;;11.43;;
45049;SDS011;61798;48.048;-1.928;2023-02-28T10:20:57;16.40;;;10.65;;
45049;SDS011;61798;48.048;-1.928;2023-02-28T10:23:14;15.52;;;10.10;;
45049;SDS011;61798;48.048;-1.928;2023-02-28T10:25:27;14.63;;;10.25;;
45049;SDS011;61798;48.048;-1.928;2023-02-28T10:27:34;14.55;;;8.35;;
45049;SDS011;61798;48.048;-1.928;2023-02-28T10:29:44;14.30;;;7.90;;
45049;SDS011;61798;48.048;-1.928;2023-02-28T10:31:52;12.40;;;8.30;;
45049;SDS011;61798;48.048;-1.928;2023-02-28T10:33:59;16.95;;;8.48;;
45049;SDS011;61798;48.048;-1.928;2023-02-28T10:36:05;23.77;;;9.65;;
45049;SDS011;61798;48.048;-1.928;2023-02-28T10:38:17;11.68;;;8.05;;
45049;SDS011;61798;48.048;-1.928;2023-02-28T10:40:29;14.30;;;9.23;;
45049;SDS011;61798;48.048;-1.928;2023-02-28T10:42:39;8.77;;;7.13;;
45049;SDS011;61798;48.048;-1.928;2023-02-28T10:44:45;12.80;;;7.45;;
45049;SDS011;61798;48.048;-1.928;2023-02-28T10:46:50;13.88;;;7.97;;
45049;SDS011;61798;48.048;-1.928;2023-02-28T10:49:01;15.55;;;9.07;;
45049;SDS011;61798;48.048;-1.928;2023-02-28T10:51:10;11.23;;;7.77;;
45049;SDS011;61798;48.048;-1.928;2023-02-28T10:55:33;10.23;;;6.53;;
45049;SDS011;61798;48.048;-1.928;2023-02-28T10:57:40;8.80;;;5.93;;
45049;SDS011;61798;48.048;-1.928;2023-02-28T10:59:51;9.30;;;6.30;;
45049;SDS011;61798;48.048;-1.928;2023-02-28T11:01:58;7.47;;;5.45;;
45049;SDS011;61798;48.048;-1.928;2023-02-28T11:04:51;7.35;;;5.18;;
45049;SDS011;61798;48.048;-1.928;2023-02-28T11:06:35;6.32;;;4.30;;
45049;SDS011;61798;48.048;-1.928;2023-02-28T11:08:45;8.05;;;4.82;;
45049;SDS011;61798;48.048;-1.928;2023-02-28T11:10:58;8.70;;;4.72;;
45049;SDS011;61798;48.048;-1.928;2023-02-28T11:13:15;10.25;;;5.72;;
45049;SDS011;61798;48.048;-1.928;2023-02-28T11:15:29;9.85;;;5.28;;
45049;SDS011;61798;48.048;-1.928;2023-02-28T11:20:30;12.65;;;6.63;;
45049;SDS011;61798;48.048;-1.928;2023-02-28T11:22:39;9.23;;;5.47;;
45049;SDS011;61798;48.048;-1.928;2023-02-28T11:24:51;7.10;;;5.00;;
45049;SDS011;61798;48.048;-1.928;2023-02-28T11:27:03;8.38;;;5.78;;
45049;SDS011;61798;48.048;-1.928;2023-02-28T11:29:20;7.85;;;5.63;;
45049;SDS011;61798;48.048;-1.928;2023-02-28T11:31:30;8.27;;;5.28;;
45049;SDS011;61798;48.048;-1.928;2023-02-28T11:33:40;7.82;;;5.63;;
45049;SDS011;61798;48.048;-1.928;2023-02-28T11:35:51;11.35;;;7.03;;
45049;SDS011;61798;48.048;-1.928;2023-02-28T11:38:00;12.68;;;6.38;;
45049;SDS011;61798;48.048;-1.928;2023-02-28T11:40:15;10.18;;;6.95;;
45049;SDS011;61798;48.048;-1.928;2023-02-28T11:42:27;12.23;;;6.53;;
45049;SDS011;61798;48.048;-1.928;2023-02-28T11:47:17;13.70;;;7.25;;
45049;SDS011;61798;48.048;-1.928;2023-02-28T11:49:41;12.10;;;7.30;;
45049;SDS011;61798;48.048;-1.928;2023-02-28T11:51:53;11.75;;;7.38;;
45049;SDS011;61798;48.048;-1.928;2023-02-28T11:56:47;12.55;;;8.27;;
45049;SDS011;61798;48.048;-1.928;2023-02-28T12:01:09;14.18;;;8.52;;
45049;SDS011;61798;48.048;-1.928;2023-02-28T12:03:39;10.85;;;8.07;;
45049;SDS011;61798;48.048;-1.928;2023-02-28T12:09:30;10.68;;;7.13;;
45049;SDS011;61798;48.048;-1.928;2023-02-28T12:11:59;12.00;;;7.82;;
45049;SDS011;61798;48.048;-1.928;2023-02-28T12:14:46;12.38;;;7.63;;
45049;SDS011;61798;48.048;-1.928;2023-02-28T12:27:55;9.65;;;5.65;;
45049;SDS011;61798;48.048;-1.928;2023-02-28T12:32:31;10.63;;;6.20;;
45049;SDS011;61798;48.048;-1.928;2023-02-28T12:34:55;8.82;;;5.57;;
45049;SDS011;61798;48.048;-1.928;2023-02-28T12:37:15;7.70;;;4.82;;
45049;SDS011;61798;48.048;-1.928;2023-02-28T12:39:37;8.70;;;4.85;;
45049;SDS011;61798;48.048;-1.928;2023-02-28T12:41:59;6.97;;;5.00;;
45049;SDS011;61798;48.048;-1.928;2023-02-28T12:44:20;8.73;;;5.95;;
45049;SDS011;61798;48.048;-1.928;2023-02-28T12:46:41;6.88;;;4.80;;
45049;SDS011;61798;48.048;-1.928;2023-02-28T12:48:56;7.43;;;4.68;;
45049;SDS011;61798;48.048;-1.928;2023-02-28T12:51:08;7.65;;;5.53;;
45049;SDS011;61798;48.048;-1.928;2023-02-28T12:57:02;7.00;;;5.10;;
45049;SDS011;61798;48.048;-1.928;2023-02-28T12:59:03;8.63;;;5.43;;
45049;SDS011;61798;48.048;-1.928;2023-02-28T13:04:06;7.55;;;5.32;;
45049;SDS011;61798;48.048;-1.928;2023-02-28T13:09:02;9.75;;;5.75;;
45049;SDS011;61798;48.048;-1.928;2023-02-28T13:11:23;10.27;;;5.78;;
45049;SDS011;61798;48.048;-1.928;2023-02-28T13:13:30;9.25;;;6.07;;
45049;SDS011;61798;48.048;-1.928;2023-02-28T13:15:37;7.28;;;5.15;;
45049;SDS011;61798;48.048;-1.928;2023-02-28T13:17:46;8.32;;;5.60;;
45049;SDS011;61798;48.048;-1.928;2023-02-28T13:22:02;7.30;;;5.00;;
45049;SDS011;61798;48.048;-1.928;2023-02-28T13:24:09;7.18;;;4.95;;
45049;SDS011;61798;48.048;-1.928;2023-02-28T13:26:16;9.88;;;5.10;;
45049;SDS011;61798;48.048;-1.928;2023-02-28T13:31:07;7.85;;;5.15;;
45049;SDS011;61798;48.048;-1.928;2023-02-28T13:35:36;9.00;;;4.97;;
45049;SDS011;61798;48.048;-1.928;2023-02-28T13:37:49;9.40;;;5.07;;
45049;SDS011;61798;48.048;-1.928;2023-02-28T13:47:19;8.40;;;4.80;;
45049;SDS011;61798;48.048;-1.928;2023-02-28T13:49:30;8.35;;;4.90;;
45049;SDS011;61798;48.048;-1.928;2023-02-28T13:53:58;7.30;;;4.82;;
45049;SDS011;61798;48.048;-1.928;2023-02-28T13:56:28;7.15;;;5.38;;
45049;SDS011;61798;48.048;-1.928;2023-02-28T14:01:36;7.10;;;4.95;;
45049;SDS011;61798;48.048;-1.928;2023-02-28T14:06:38;28.92;;;5.85;;
45049;SDS011;61798;48.048;-1.928;2023-02-28T14:11:32;43.85;;;6.70;;
45049;SDS011;61798;48.048;-1.928;2023-02-28T14:13:43;9.32;;;4.80;;
45049;SDS011;61798;48.048;-1.928;2023-02-28T14:15:57;9.30;;;5.80;;